createdAt,value
2018-03-03T00:01:17.584Z,20.93
2018-03-03T00:03:45.040Z,19.43
2018-03-03T00:06:12.499Z,19.50
2018-03-03T00:08:39.951Z,20.17
2018-03-03T00:11:07.746Z,20.53
2018-03-03T00:13:35.975Z,20.53
2018-03-03T00:16:03.430Z,20.57
2018-03-03T00:18:30.879Z,21.13
2018-03-03T00:20:58.338Z,20.03
2018-03-03T00:23:25.794Z,19.43
2018-03-03T00:25:53.258Z,19.90
2018-03-03T00:28:20.710Z,20.07
2018-03-03T00:30:48.935Z,20.80
2018-03-03T00:33:16.382Z,19.40
2018-03-03T00:35:43.847Z,21.30
2018-03-03T00:38:11.310Z,19.50
2018-03-03T00:40:39.537Z,20.33
2018-03-03T00:43:06.998Z,19.77
2018-03-03T00:45:34.458Z,18.93
2018-03-03T00:48:01.915Z,19.20
2018-03-03T00:50:29.394Z,19.83
2018-03-03T00:52:56.842Z,21.33
2018-03-03T00:55:24.298Z,18.60
2018-03-03T00:57:51.765Z,20.47
2018-03-03T01:00:19.225Z,18.90
2018-03-03T01:02:46.685Z,18.93
2018-03-03T01:05:14.138Z,20.43
2018-03-03T01:07:41.618Z,19.10
2018-03-03T01:10:09.070Z,19.63
2018-03-03T01:12:36.534Z,19.67
2018-03-03T01:15:04.785Z,20.83
2018-03-03T01:17:32.266Z,19.93
2018-03-03T01:20:00.489Z,20.47
2018-03-03T01:22:27.961Z,19.00
2018-03-03T01:24:55.426Z,19.40
2018-03-03T01:27:22.994Z,19.07
2018-03-03T01:29:50.464Z,19.73
2018-03-03T01:32:17.945Z,19.67
2018-03-03T01:34:46.165Z,20.30
2018-03-03T01:37:14.387Z,21.57
2018-03-03T01:39:42.650Z,20.07
2018-03-03T01:42:10.110Z,19.57
2018-03-03T01:44:37.567Z,19.47
2018-03-03T01:47:05.797Z,20.80
2018-03-03T01:49:33.253Z,18.17
2018-03-03T01:52:00.719Z,19.60
2018-03-03T01:54:28.174Z,21.10
2018-03-03T01:56:55.628Z,19.07
2018-03-03T01:59:23.082Z,18.90
2018-03-03T02:01:50.542Z,18.83
2018-03-03T02:04:17.998Z,21.27
2018-03-03T02:06:45.466Z,18.50
2018-03-03T02:09:12.929Z,20.30
2018-03-03T02:11:40.406Z,20.07
2018-03-03T02:14:07.873Z,18.43
2018-03-03T02:16:35.332Z,18.97
2018-03-03T02:19:02.798Z,19.07
2018-03-03T02:21:30.250Z,18.90
2018-03-03T02:23:58.478Z,19.30
2018-03-03T02:26:25.943Z,18.83
2018-03-03T02:28:53.401Z,18.90
2018-03-03T02:31:20.856Z,19.13
2018-03-03T02:33:48.315Z,19.23
2018-03-03T02:36:21.650Z,19.57
2018-03-03T02:38:49.878Z,18.43
2018-03-03T02:41:17.333Z,19.63
2018-03-03T02:43:44.790Z,20.37
2018-03-03T02:46:12.245Z,19.70
2018-03-03T02:48:39.705Z,19.60
2018-03-03T02:51:07.927Z,19.40
2018-03-03T02:53:36.155Z,19.87
2018-03-03T02:56:03.605Z,19.23
2018-03-03T02:58:31.066Z,20.60
2018-03-03T03:00:58.518Z,19.20
2018-03-03T03:03:25.975Z,19.67
2018-03-03T03:05:53.432Z,18.77
2018-03-03T03:08:20.896Z,19.10
2018-03-03T03:10:48.344Z,21.47
2018-03-03T03:13:15.807Z,19.60
2018-03-03T03:15:43.245Z,20.23
2018-03-03T03:18:10.712Z,18.47
2018-03-03T03:20:38.178Z,18.90
2018-03-03T03:23:05.631Z,18.97
2018-03-03T03:25:33.102Z,20.87
2018-03-03T03:28:00.532Z,20.07
2018-03-03T03:30:28.757Z,19.50
2018-03-03T03:32:56.971Z,18.57
2018-03-03T03:35:25.191Z,18.57
2018-03-03T03:37:52.640Z,19.60
2018-03-03T03:40:20.088Z,20.00
2018-03-03T03:42:47.546Z,19.67
2018-03-03T03:45:14.997Z,19.43
2018-03-03T03:47:42.446Z,21.03
2018-03-03T03:50:09.898Z,19.93
2018-03-03T03:52:37.351Z,19.93
2018-03-03T03:55:05.584Z,19.60
2018-03-03T03:57:33.029Z,20.77
2018-03-03T04:00:00.497Z,20.83
2018-03-03T04:02:27.946Z,21.03
2018-03-03T04:04:56.169Z,20.87
2018-03-03T04:07:24.399Z,20.10
2018-03-03T04:09:51.886Z,19.23
2018-03-03T04:12:19.334Z,21.50
2018-03-03T04:14:46.793Z,20.60
2018-03-03T04:19:48.059Z,20.97
2018-03-03T04:22:15.508Z,20.87
2018-03-03T04:24:42.965Z,21.20
2018-03-03T04:27:10.417Z,20.87
2018-03-03T04:29:37.877Z,21.90
2018-03-03T04:32:05.325Z,20.10
2018-03-03T04:34:32.790Z,21.23
2018-03-03T04:37:00.242Z,21.03
2018-03-03T04:39:27.705Z,22.20
2018-03-03T04:41:55.162Z,22.53
2018-03-03T04:44:23.365Z,22.30
2018-03-03T04:46:51.602Z,21.87
2018-03-03T04:49:19.067Z,21.70
2018-03-03T04:51:47.281Z,22.23
2018-03-03T04:54:14.736Z,21.67
2018-03-03T04:56:42.185Z,22.20
2018-03-03T04:59:25.281Z,21.60
2018-03-03T05:01:59.096Z,23.50
2018-03-03T05:04:31.962Z,24.17
2018-03-03T05:10:01.196Z,21.93
2018-03-03T05:12:32.261Z,22.87
2018-03-03T05:15:06.029Z,20.70
2018-03-03T05:17:39.174Z,21.17
2018-03-03T05:20:12.396Z,21.50
2018-03-03T05:22:45.579Z,23.00
2018-03-03T05:25:18.713Z,21.87
2018-03-03T05:27:51.777Z,23.70
2018-03-03T05:30:24.939Z,22.53
2018-03-03T05:32:56.309Z,21.83
2018-03-03T05:35:29.429Z,22.60
2018-03-03T05:38:02.582Z,23.90
2018-03-03T05:40:36.593Z,22.80
2018-03-03T05:43:09.600Z,21.90
2018-03-03T05:45:53.837Z,24.03
2018-03-03T05:51:20.102Z,21.93
2018-03-03T05:53:48.466Z,23.37
2018-03-03T05:56:21.569Z,22.87
2018-03-03T05:58:54.588Z,24.43
2018-03-03T06:04:42.745Z,23.10
2018-03-03T06:07:25.078Z,23.63
2018-03-03T06:10:09.213Z,24.87
2018-03-03T06:12:37.428Z,25.27
2018-03-03T06:15:04.877Z,24.80
2018-03-03T06:17:32.333Z,22.83
2018-03-03T06:19:59.804Z,24.10
2018-03-03T06:22:27.268Z,23.67
2018-03-03T06:24:54.721Z,23.40
2018-03-03T06:27:22.183Z,22.90
2018-03-03T06:29:49.637Z,24.80
2018-03-03T06:32:17.116Z,23.97
2018-03-03T06:34:44.562Z,26.33
2018-03-03T06:37:12.060Z,24.03
2018-03-03T06:39:40.314Z,25.13
2018-03-03T06:42:07.773Z,25.00
2018-03-03T06:44:35.231Z,24.53
2018-03-03T06:47:02.689Z,23.73
2018-03-03T06:49:30.152Z,24.50
2018-03-03T06:51:57.593Z,25.17
2018-03-03T06:54:25.052Z,24.00
2018-03-03T06:56:52.511Z,25.47
2018-03-03T06:59:19.980Z,24.97
2018-03-03T07:01:48.230Z,25.80
2018-03-03T07:04:15.684Z,25.17
2018-03-03T07:06:43.904Z,24.87
2018-03-03T07:09:12.138Z,25.00
2018-03-03T07:11:39.605Z,24.30
2018-03-03T07:14:07.065Z,24.83
2018-03-03T07:16:34.509Z,24.50
2018-03-03T07:19:01.973Z,24.60
2018-03-03T07:21:29.418Z,25.97
2018-03-03T07:23:56.877Z,26.07
2018-03-03T07:26:24.333Z,24.50
2018-03-03T07:28:51.790Z,24.83
2018-03-03T07:31:19.250Z,25.00
2018-03-03T07:33:46.714Z,26.27
2018-03-03T07:36:14.175Z,26.70
2018-03-03T07:38:41.616Z,26.90
2018-03-03T07:41:09.065Z,26.03
2018-03-03T07:43:36.510Z,25.20
2018-03-03T07:46:03.974Z,27.63
2018-03-03T07:48:31.436Z,27.40
2018-03-03T07:50:58.885Z,27.57
2018-03-03T07:53:26.357Z,27.60
2018-03-03T07:55:53.810Z,28.63
2018-03-03T07:58:31.997Z,26.63
2018-03-03T08:00:59.453Z,27.50
2018-03-03T08:03:27.679Z,28.83
2018-03-03T08:05:55.142Z,28.50
2018-03-03T08:08:22.593Z,27.90
2018-03-03T08:10:50.055Z,28.43
2018-03-03T08:13:17.509Z,27.50
2018-03-03T08:15:44.969Z,30.37
2018-03-03T08:18:12.421Z,27.90
2018-03-03T08:20:39.885Z,27.10
2018-03-03T08:23:07.330Z,29.00
2018-03-03T08:25:34.819Z,28.43
2018-03-03T08:28:03.034Z,26.87
2018-03-03T08:30:30.485Z,27.00
2018-03-03T08:32:57.949Z,28.60
2018-03-03T08:35:25.406Z,30.13
2018-03-03T08:37:52.859Z,29.10
2018-03-03T08:40:20.317Z,29.63
2018-03-03T08:42:48.525Z,30.33
2018-03-03T08:45:15.990Z,30.57
2018-03-03T08:47:43.442Z,29.27
2018-03-03T08:50:10.901Z,28.53
2018-03-03T08:52:38.349Z,31.10
2018-03-03T08:55:05.802Z,30.77
2018-03-03T08:57:34.026Z,30.50
2018-03-03T09:00:01.468Z,30.60
2018-03-03T09:02:28.935Z,30.90
2018-03-03T09:04:57.157Z,29.63
2018-03-03T09:07:24.611Z,30.87
2018-03-03T09:09:52.081Z,31.53
2018-03-03T09:12:19.539Z,33.47
2018-03-03T09:14:46.986Z,31.47
2018-03-03T09:17:14.441Z,32.43
2018-03-03T09:19:41.911Z,31.90
2018-03-03T09:22:09.369Z,33.60
2018-03-03T09:24:36.830Z,31.93
2018-03-03T09:27:04.289Z,32.83
2018-03-03T09:29:31.744Z,31.87
2018-03-03T09:31:59.220Z,33.57
2018-03-03T09:34:26.666Z,32.17
2018-03-03T09:36:54.904Z,33.73
2018-03-03T09:39:22.361Z,33.03
2018-03-03T09:41:49.825Z,32.00
2018-03-03T09:44:18.049Z,31.57
2018-03-03T09:46:46.286Z,33.80
2018-03-03T09:49:13.741Z,33.80
2018-03-03T09:51:41.202Z,32.50
2018-03-03T09:54:08.665Z,32.30
2018-03-03T09:56:36.121Z,32.20
2018-03-03T09:59:03.583Z,31.20
2018-03-03T10:01:31.074Z,32.40
2018-03-03T10:03:58.494Z,32.13
2018-03-03T10:06:25.957Z,30.30
2018-03-03T10:08:53.417Z,32.60
2018-03-03T10:11:20.878Z,30.30
2018-03-03T10:13:48.335Z,29.00
2018-03-03T10:16:15.829Z,32.60
2018-03-03T10:18:43.260Z,31.00
2018-03-03T10:21:10.710Z,32.30
2018-03-03T10:23:38.169Z,31.77
2018-03-03T10:26:05.628Z,32.60
2018-03-03T10:28:33.096Z,31.33
2018-03-03T10:31:01.347Z,32.00
2018-03-03T10:33:28.804Z,30.63
2018-03-03T10:35:56.258Z,32.80
2018-03-03T10:38:23.730Z,31.43
2018-03-03T10:40:51.190Z,31.87
2018-03-03T10:43:18.650Z,30.07
2018-03-03T10:45:46.115Z,35.80
2018-03-03T10:48:13.577Z,33.47
2018-03-03T10:50:41.869Z,33.50
2018-03-03T10:53:09.256Z,31.80
2018-03-03T10:55:36.714Z,33.57
2018-03-03T10:58:04.173Z,32.77
2018-03-03T11:00:31.650Z,32.90
2018-03-03T11:02:59.093Z,31.67
2018-03-03T11:05:27.332Z,32.17
2018-03-03T11:07:54.791Z,29.33
2018-03-03T11:10:23.227Z,30.60
2018-03-03T11:12:50.652Z,30.70
2018-03-03T11:15:18.118Z,27.90
2018-03-03T11:17:45.578Z,30.90
2018-03-03T11:20:13.053Z,30.80
2018-03-03T11:22:40.504Z,30.57
2018-03-03T11:25:07.968Z,32.50
2018-03-03T11:27:35.421Z,32.23
2018-03-03T11:30:02.903Z,28.60
2018-03-03T11:32:30.369Z,27.20
2018-03-03T11:35:05.001Z,24.53
2018-03-03T11:37:32.470Z,26.93
2018-03-03T11:39:59.959Z,24.97
2018-03-03T11:42:27.484Z,25.93
2018-03-03T11:44:55.853Z,23.83
2018-03-03T11:47:24.081Z,24.13
2018-03-03T11:49:51.545Z,21.90
2018-03-03T11:52:19.048Z,22.57
2018-03-03T11:54:46.573Z,22.50
2018-03-03T11:57:14.074Z,21.20
2018-03-03T11:59:42.281Z,21.10
2018-03-03T12:02:09.761Z,20.70
2018-03-03T12:04:37.274Z,21.50
2018-03-03T12:07:05.728Z,19.80
2018-03-03T12:09:33.202Z,19.60
2018-03-03T12:12:00.666Z,20.77
2018-03-03T12:14:28.115Z,18.83
2018-03-03T12:16:56.544Z,17.77
2018-03-03T12:19:24.015Z,18.47
2018-03-03T12:21:51.490Z,19.07
2018-03-03T12:24:18.951Z,18.83
2018-03-03T12:26:46.405Z,17.97
2018-03-03T12:29:13.866Z,17.30
2018-03-03T12:31:42.097Z,16.97
2018-03-03T12:34:10.322Z,15.40
2018-03-03T12:36:37.778Z,17.10
2018-03-03T12:39:05.989Z,18.70
2018-03-03T12:41:34.267Z,16.53
2018-03-03T12:44:02.452Z,16.63
2018-03-03T12:46:29.902Z,16.37
2018-03-03T12:48:57.369Z,15.90
2018-03-03T12:51:24.885Z,16.23
2018-03-03T12:53:53.109Z,15.83
2018-03-03T12:56:20.608Z,16.13
2018-03-03T12:58:48.864Z,14.93
2018-03-03T13:01:16.301Z,16.03
2018-03-03T13:03:43.757Z,16.50
2018-03-03T13:06:11.217Z,15.40
2018-03-03T13:08:38.673Z,15.53
2018-03-03T13:11:06.541Z,15.17
2018-03-03T13:13:33.993Z,14.13
2018-03-03T13:16:02.443Z,14.30
2018-03-03T13:18:30.665Z,14.90
2018-03-03T13:20:58.115Z,14.50
2018-03-03T13:23:25.573Z,14.73
2018-03-03T13:25:53.034Z,13.80
2018-03-03T13:28:21.265Z,14.30
2018-03-03T13:30:48.725Z,14.80
2018-03-03T13:33:16.191Z,14.67
2018-03-03T13:35:43.703Z,13.17
2018-03-03T13:38:11.118Z,13.57
2018-03-03T13:40:38.593Z,13.10
2018-03-03T13:43:06.805Z,13.63
2018-03-03T13:45:35.038Z,14.60
2018-03-03T13:48:03.264Z,13.70
2018-03-03T13:50:31.494Z,13.57
2018-03-03T13:52:58.946Z,13.27
2018-03-03T13:55:26.403Z,14.17
2018-03-03T13:57:53.861Z,13.70
2018-03-03T14:00:21.315Z,13.60
2018-03-03T14:02:48.772Z,13.80
2018-03-03T14:05:16.232Z,12.17
2018-03-03T14:07:43.685Z,13.90
2018-03-03T14:10:11.153Z,13.73
2018-03-03T14:12:38.596Z,13.67
2018-03-03T14:15:06.066Z,12.90
2018-03-03T14:17:33.518Z,12.77
2018-03-03T14:20:00.977Z,13.30
2018-03-03T14:22:28.431Z,13.60
2018-03-03T14:24:55.908Z,15.50
2018-03-03T14:27:23.357Z,18.10
2018-03-03T14:29:50.817Z,17.57
2018-03-03T14:32:18.274Z,19.27
2018-03-03T14:34:46.498Z,20.33
2018-03-03T14:37:13.957Z,20.13
2018-03-03T14:39:41.413Z,20.13
2018-03-03T14:42:09.646Z,20.03
2018-03-03T14:44:37.107Z,22.40
2018-03-03T14:47:04.556Z,21.83
2018-03-03T14:49:32.775Z,22.77
2018-03-03T14:52:00.996Z,22.57
2018-03-03T14:54:28.461Z,21.90
2018-03-03T14:56:55.925Z,22.40
2018-03-03T14:59:23.374Z,22.23
2018-03-03T15:01:50.829Z,21.53
2018-03-03T15:04:18.281Z,22.07
2018-03-03T15:06:45.748Z,22.30
2018-03-03T15:09:13.202Z,23.53
2018-03-03T15:11:40.678Z,22.90
2018-03-03T15:14:08.125Z,22.90
2018-03-03T15:16:35.601Z,22.43
2018-03-03T15:19:03.053Z,23.70
2018-03-03T15:21:30.585Z,23.93
2018-03-03T15:23:58.061Z,22.70
2018-03-03T15:26:25.506Z,23.67
2018-03-03T15:28:52.966Z,22.40
2018-03-03T15:31:21.187Z,22.97
2018-03-03T15:33:49.421Z,22.43
2018-03-03T15:36:16.869Z,21.77
2018-03-03T15:38:44.331Z,22.40
2018-03-03T15:41:11.877Z,21.67
2018-03-03T15:43:39.338Z,21.60
2018-03-03T15:46:06.818Z,21.40
2018-03-03T15:48:34.274Z,21.43
2018-03-03T15:51:01.721Z,22.60
2018-03-03T15:53:29.977Z,21.93
2018-03-03T15:55:57.440Z,23.25
2018-03-03T15:58:24.892Z,22.03
2018-03-03T16:00:52.350Z,23.20
2018-03-03T16:03:19.819Z,20.80
2018-03-03T16:05:47.268Z,21.93
2018-03-03T16:08:14.749Z,22.27
2018-03-03T16:10:42.211Z,23.70
2018-03-03T16:13:09.672Z,21.87
2018-03-03T16:15:37.133Z,23.30
2018-03-03T16:18:04.606Z,21.77
2018-03-03T16:20:32.048Z,22.47
2018-03-03T16:22:59.511Z,23.80
2018-03-03T16:25:26.975Z,23.90
2018-03-03T16:27:54.426Z,22.90
2018-03-03T16:30:21.891Z,22.73
2018-03-03T16:32:50.110Z,22.70
2018-03-03T16:35:18.334Z,23.33
2018-03-03T16:37:46.607Z,24.83
2018-03-03T16:40:14.053Z,23.63
2018-03-03T16:42:41.513Z,22.70
2018-03-03T16:45:08.984Z,19.93
2018-03-03T16:47:37.221Z,21.70
2018-03-03T16:50:04.677Z,20.90
2018-03-03T16:52:32.155Z,23.03
2018-03-03T16:54:59.601Z,24.17
2018-03-03T16:57:27.067Z,23.60
2018-03-03T16:59:54.525Z,23.10
2018-03-03T17:02:22.002Z,23.90
2018-03-03T17:04:49.462Z,25.03
2018-03-03T17:07:16.921Z,27.37
2018-03-03T17:09:44.371Z,26.87
2018-03-03T17:12:11.833Z,26.73
2018-03-03T17:14:39.295Z,25.37
2018-03-03T17:17:06.762Z,26.13
2018-03-03T17:19:35.046Z,24.70
2018-03-03T17:22:03.277Z,25.63
2018-03-03T17:24:30.781Z,23.67
2018-03-03T17:26:59.002Z,23.00
2018-03-03T17:29:26.465Z,24.40
2018-03-03T17:31:53.925Z,24.43
2018-03-03T17:34:21.372Z,25.03
2018-03-03T17:36:48.973Z,24.00
2018-03-03T17:39:16.480Z,24.20
2018-03-03T17:41:43.958Z,25.23
2018-03-03T17:44:11.401Z,23.40
2018-03-03T17:46:38.858Z,24.63
2018-03-03T17:49:06.313Z,25.20
2018-03-03T17:51:33.793Z,27.07
2018-03-03T17:54:01.255Z,25.43
2018-03-03T17:56:28.702Z,24.13
2018-03-03T17:58:56.214Z,23.87
2018-03-03T18:01:23.605Z,27.30
2018-03-03T18:03:51.075Z,25.87
2018-03-03T18:06:18.573Z,25.77
2018-03-03T18:08:46.178Z,26.57
2018-03-03T18:11:14.427Z,25.30
2018-03-03T18:13:42.642Z,27.00
2018-03-03T18:16:10.094Z,25.53
2018-03-03T18:18:37.565Z,26.60
2018-03-03T18:21:05.014Z,24.73
2018-03-03T18:23:32.469Z,25.67
2018-03-03T18:25:59.947Z,25.80
2018-03-03T18:28:27.477Z,27.17
2018-03-03T18:30:54.932Z,26.03
2018-03-03T18:33:22.432Z,27.00
2018-03-03T18:35:50.705Z,24.50
2018-03-03T18:38:18.965Z,25.30
2018-03-03T18:40:46.426Z,25.97
2018-03-03T18:43:13.906Z,25.20
2018-03-03T18:45:42.142Z,24.70
2018-03-03T18:48:09.621Z,25.70
2018-03-03T18:50:37.081Z,25.87
2018-03-03T18:53:04.541Z,25.17
2018-03-03T18:55:31.984Z,25.50
2018-03-03T18:58:00.241Z,25.13
2018-03-03T19:00:27.705Z,24.73
2018-03-03T19:02:55.165Z,26.63
2018-03-03T19:05:22.642Z,24.90
2018-03-03T19:07:50.104Z,26.33
2018-03-03T19:10:17.556Z,25.43
2018-03-03T19:12:45.829Z,26.17
2018-03-03T19:15:13.331Z,24.40
2018-03-03T19:17:41.599Z,27.43
2018-03-03T19:20:09.158Z,27.30
2018-03-03T19:22:37.393Z,26.67
2018-03-03T19:25:04.842Z,28.07
2018-03-03T19:27:32.392Z,27.70
2018-03-03T19:29:59.865Z,26.43
2018-03-03T19:32:27.317Z,27.83
2018-03-03T19:34:54.775Z,28.37
2018-03-03T19:37:22.266Z,27.07
2018-03-03T19:39:50.683Z,26.43
2018-03-03T19:42:18.167Z,25.77
2018-03-03T19:44:46.879Z,25.73
2018-03-03T19:47:14.400Z,26.87
2018-03-03T19:49:42.634Z,25.63
2018-03-03T19:52:11.032Z,26.03
2018-03-03T19:54:38.493Z,24.50
2018-03-03T19:57:05.937Z,25.77
2018-03-03T19:59:34.210Z,24.87
2018-03-03T20:02:01.734Z,24.37
2018-03-03T20:04:30.257Z,24.40
2018-03-03T20:06:58.477Z,25.00
2018-03-03T20:09:26.001Z,23.90
2018-03-03T20:11:53.465Z,24.07
2018-03-03T20:14:20.997Z,24.97
2018-03-03T20:16:48.690Z,23.43
2018-03-03T20:19:16.304Z,24.50
2018-03-03T20:21:44.666Z,23.70
2018-03-03T20:24:12.937Z,22.10
2018-03-03T20:26:40.394Z,22.40
2018-03-03T20:29:08.617Z,23.97
2018-03-03T20:31:36.825Z,22.37
2018-03-03T20:34:04.281Z,21.90
2018-03-03T20:36:35.240Z,21.63
2018-03-03T20:39:03.522Z,23.20
2018-03-03T20:41:30.990Z,21.40
2018-03-03T20:43:59.972Z,22.00
2018-03-03T20:46:27.426Z,21.23
2018-03-03T20:48:54.956Z,21.80
2018-03-03T20:51:22.409Z,22.43
2018-03-03T20:53:50.735Z,22.47
2018-03-03T20:56:18.212Z,21.07
2018-03-03T20:58:46.442Z,22.63
2018-03-03T21:01:13.892Z,21.43
2018-03-03T21:03:41.362Z,21.53
2018-03-03T21:06:08.805Z,21.60
2018-03-03T21:08:36.262Z,21.60
2018-03-03T21:11:03.727Z,21.50
2018-03-03T21:13:31.189Z,21.70
2018-03-03T21:15:58.637Z,21.37
2018-03-03T21:18:26.097Z,20.70
2018-03-03T21:20:53.553Z,20.70
2018-03-03T21:23:21.012Z,20.47
2018-03-03T21:25:48.479Z,21.27
2018-03-03T21:28:16.058Z,20.77
2018-03-03T21:30:43.414Z,20.30
2018-03-03T21:33:10.870Z,20.60
2018-03-03T21:35:38.309Z,19.80
2018-03-03T21:38:05.773Z,20.67
2018-03-03T21:40:33.233Z,21.77
2018-03-03T21:43:00.707Z,22.17
2018-03-03T21:45:28.157Z,21.90
2018-03-03T21:47:55.626Z,21.40
2018-03-03T21:50:23.061Z,22.03
2018-03-03T21:52:50.505Z,22.30
2018-03-03T21:55:17.976Z,21.80
2018-03-03T21:57:45.426Z,21.30
2018-03-03T22:00:12.890Z,20.77
2018-03-03T22:02:40.337Z,21.70
2018-03-03T22:05:07.789Z,21.13
2018-03-03T22:07:35.233Z,20.40
2018-03-03T22:10:02.725Z,21.83
2018-03-03T22:12:30.146Z,20.90
2018-03-03T22:14:57.622Z,21.43
2018-03-03T22:17:25.050Z,21.87
2018-03-03T22:19:52.524Z,21.53
2018-03-03T22:22:19.971Z,21.87
2018-03-03T22:24:47.427Z,21.90
2018-03-03T22:27:14.895Z,21.33
2018-03-03T22:29:42.330Z,20.40
2018-03-03T22:32:09.970Z,21.30
2018-03-03T22:34:37.435Z,22.13
2018-03-03T22:37:04.891Z,21.60
2018-03-03T22:39:33.113Z,22.33
2018-03-03T22:42:01.326Z,21.37
2018-03-03T22:44:28.782Z,21.13
2018-03-03T22:46:56.993Z,21.37
2018-03-03T22:49:24.460Z,21.47
2018-03-03T22:51:51.905Z,22.70
2018-03-03T22:54:19.369Z,20.90
2018-03-03T22:56:46.819Z,22.30
2018-03-03T22:59:14.266Z,23.23
2018-03-03T23:01:41.726Z,21.00
2018-03-03T23:04:09.957Z,22.60
2018-03-03T23:06:37.401Z,22.60
2018-03-03T23:09:04.858Z,22.33
2018-03-03T23:11:32.303Z,20.30
2018-03-03T23:13:59.762Z,21.83
2018-03-03T23:16:27.973Z,22.70
2018-03-03T23:18:55.426Z,21.87
2018-03-03T23:21:22.873Z,21.87
2018-03-03T23:23:50.349Z,21.63
2018-03-03T23:26:17.808Z,21.80
2018-03-03T23:28:45.265Z,22.20
2018-03-03T23:31:12.710Z,22.20
2018-03-03T23:33:40.169Z,22.60
2018-03-03T23:36:07.641Z,22.87
2018-03-03T23:38:35.115Z,22.50
2018-03-03T23:41:03.334Z,22.60
2018-03-03T23:43:30.794Z,23.40
2018-03-03T23:45:58.246Z,23.40
2018-03-03T23:48:25.701Z,21.13
2018-03-03T23:50:53.157Z,23.20
2018-03-03T23:53:20.613Z,22.43
2018-03-03T23:55:48.837Z,22.00
2018-03-03T23:58:16.286Z,22.60
